Time;durP1;ratioP1;P1;durP2;ratioP2;P2;SDS_P1;SDS_P2;PMS_P1;PMS_P2;Temp;Humidity;BMP_temperature;BMP_pressure;BME280_temperature;BME280_humidity;BME280_pressure;Samples;Min_cycle;Max_cycle;Signal;HPM_P1;HPM_P2
2023/01/10 00:01:29;;;;;;;88.30;54.78;;;307.80;2304.00;;;;;;5090165;28;20020;-59
2023/01/10 00:03:54;;;;;;;105.35;60.20;;;307.80;2304.00;;;;;;5089766;28;20036;-59
2023/01/10 00:06:20;;;;;;;72.38;46.10;;;307.70;2304.00;;;;;;5089919;28;20058;-59
2023/01/10 00:08:46;;;;;;;84.20;48.63;;;307.80;2304.00;;;;;;5089918;28;20032;-61
2023/01/10 00:13:57;;;;;;;69.63;45.30;;;307.80;2304.00;;;;;;5047790;28;20052;-60
2023/01/10 00:16:23;;;;;;;39.00;25.90;;;307.90;2304.00;;;;;;5047318;28;20061;-60
2023/01/10 00:18:49;;;;;;;53.03;30.85;;;307.90;2304.00;;;;;;5047680;28;20033;-61
2023/01/10 00:21:15;;;;;;;185.75;93.25;;;307.80;2304.00;;;;;;5047362;28;20100;-60
2023/01/10 00:23:42;;;;;;;151.23;77.70;;;307.80;2304.00;;;;;;5047477;28;20070;-59
2023/01/10 00:26:08;;;;;;;93.20;51.88;;;307.80;2304.00;;;;;;5047213;28;20074;-59
2023/01/10 00:28:33;;;;;;;38.03;26.38;;;307.80;2304.00;;;;;;5047642;28;20029;-60
2023/01/10 00:31:00;;;;;;;21.05;12.73;;;307.80;2304.00;;;;;;5047413;28;20414;-60
2023/01/10 00:33:27;;;;;;;37.03;22.08;;;307.70;2304.00;;;;;;5047444;28;20057;-62
2023/01/10 00:35:53;;;;;;;48.55;26.20;;;307.60;2304.00;;;;;;5047243;28;20029;-59
2023/01/10 00:38:18;;;;;;;51.00;26.10;;;307.50;2304.00;;;;;;5047635;28;20415;-60
2023/01/10 00:40:45;;;;;;;18.25;12.30;;;307.50;2304.00;;;;;;5046946;28;20039;-58
2023/01/10 00:45:56;;;;;;;73.82;47.03;;;307.60;2304.00;;;;;;5047356;28;20501;-59
2023/01/10 00:48:23;;;;;;;76.18;51.17;;;307.60;2304.00;;;;;;5047618;28;20033;-59
2023/01/10 00:50:48;;;;;;;94.90;62.85;;;307.30;2304.00;;;;;;5064628;28;20041;-59
2023/01/10 00:53:15;;;;;;;91.10;55.47;;;307.30;2304.00;;;;;;5089650;28;20028;-59
2023/01/10 00:55:40;;;;;;;76.10;51.53;;;307.40;2304.00;;;;;;5089817;28;20421;-61
2023/01/10 00:58:10;;;;;;;62.38;43.35;;;307.30;2304.00;;;;;;5089747;28;20025;-59
2023/01/10 01:00:39;;;;;;;76.22;49.53;;;307.40;2304.00;;;;;;5089775;28;20381;-59
2023/01/10 01:03:06;;;;;;;47.15;30.05;;;307.80;2304.00;;;;;;5093475;28;20089;-59
2023/01/10 01:05:32;;;;;;;46.95;28.38;;;307.40;2304.00;;;;;;5093827;28;20020;-60
2023/01/10 01:07:58;;;;;;;51.78;31.08;;;307.30;2304.00;;;;;;5093335;28;20366;-59
2023/01/10 01:10:26;;;;;;;58.60;38.08;;;307.20;2304.00;;;;;;5092939;28;20024;-59
2023/01/10 01:13:04;;;;;;;69.68;41.13;;;307.20;2304.00;;;;;;5093469;28;20063;-60
2023/01/10 01:15:30;;;;;;;47.33;30.42;;;307.20;2304.00;;;;;;5093439;28;20427;-59
2023/01/10 01:17:55;;;;;;;48.55;31.40;;;307.30;2304.00;;;;;;5093203;28;20032;-60
2023/01/10 01:20:21;;;;;;;126.88;66.78;;;307.30;2304.00;;;;;;5093263;28;20028;-60
2023/01/10 01:22:47;;;;;;;179.15;89.22;;;307.30;2304.00;;;;;;5092891;28;20040;-58
2023/01/10 01:25:13;;;;;;;75.43;43.55;;;307.40;2304.00;;;;;;5092683;28;20485;-58
2023/01/10 01:27:39;;;;;;;42.65;28.35;;;307.40;2304.00;;;;;;5092929;28;20028;-59
2023/01/10 01:30:06;;;;;;;36.63;25.92;;;307.30;2304.00;;;;;;5092850;28;20115;-60
2023/01/10 01:32:32;;;;;;;27.75;18.55;;;307.30;2304.00;;;;;;5093104;28;20020;-60
2023/01/10 01:34:58;;;;;;;27.00;19.30;;;307.30;2304.00;;;;;;5092657;28;20024;-59
2023/01/10 01:37:23;;;;;;;28.20;18.30;;;282.50;2278.40;;;;;;5092415;28;20016;-60
2023/01/10 01:39:49;;;;;;;28.85;19.10;;;282.40;2278.40;;;;;;5092491;28;20081;-58
2023/01/10 01:42:30;;;;;;;34.72;21.33;;;282.30;2278.40;;;;;;5092524;28;20501;-59
2023/01/10 01:45:08;;;;;;;36.88;21.88;;;282.20;2278.40;;;;;;5092358;28;20031;-61
2023/01/10 01:47:48;;;;;;;38.60;24.17;;;282.10;2278.40;;;;;;5092379;28;20371;-59
2023/01/10 01:50:25;;;;;;;30.58;19.15;;;282.30;2278.40;;;;;;5092245;28;20158;-60
2023/01/10 01:52:54;;;;;;;24.75;16.15;;;282.30;2278.40;;;;;;5092485;28;20020;-59
2023/01/10 01:55:21;;;;;;;14.35;9.60;;;282.30;2278.40;;;;;;5092273;28;20024;-59
2023/01/10 01:57:48;;;;;;;21.25;13.32;;;282.30;2278.40;;;;;;5092493;28;20039;-59
2023/01/10 02:00:14;;;;;;;45.25;26.23;;;282.20;2278.40;;;;;;5092205;28;20028;-59
2023/01/10 02:02:52;;;;;;;57.13;33.35;;;282.30;2278.40;;;;;;5092273;28;20043;-58
2023/01/10 02:05:21;;;;;;;34.30;21.63;;;282.20;2278.40;;;;;;5091984;28;20103;-60
2023/01/10 02:07:51;;;;;;;34.83;21.75;;;282.30;2278.40;;;;;;5092093;28;20027;-61
2023/01/10 02:10:22;;;;;;;18.90;11.23;;;282.20;2278.40;;;;;;5091713;28;20024;-59
2023/01/10 02:12:51;;;;;;;13.27;8.30;;;282.30;2278.40;;;;;;5091567;28;20031;-58
2023/01/10 02:15:17;;;;;;;12.10;8.27;;;282.30;2278.40;;;;;;5091987;28;20409;-58
2023/01/10 02:17:45;;;;;;;14.40;7.63;;;282.30;2278.40;;;;;;5092182;28;20028;-57
2023/01/10 02:20:12;;;;;;;13.13;8.10;;;282.10;2278.40;;;;;;5092166;28;20043;-60
2023/01/10 02:22:56;;;;;;;13.15;8.98;;;282.10;2278.40;;;;;;5091707;28;20032;-58
2023/01/10 02:25:59;;;;;;;11.20;7.45;;;282.10;2278.40;;;;;;5091751;28;20533;-57
2023/01/10 02:28:33;;;;;;;9.32;6.53;;;282.10;2278.40;;;;;;5091515;28;20024;-59
2023/01/10 02:31:21;;;;;;;10.77;6.53;;;282.10;2278.40;;;;;;5091719;28;20058;-60
2023/01/10 02:34:06;;;;;;;12.93;6.90;;;282.00;2278.40;;;;;;5091602;28;20024;-60
2023/01/10 02:36:50;;;;;;;10.25;6.63;;;282.00;2278.40;;;;;;5091747;28;20032;-59
2023/01/10 02:39:28;;;;;;;10.50;7.20;;;282.10;2278.40;;;;;;5090978;28;20129;-61
2023/01/10 02:42:09;;;;;;;8.52;6.18;;;282.00;2278.40;;;;;;5091480;28;20479;-60
2023/01/10 02:44:57;;;;;;;9.63;6.57;;;282.00;2278.40;;;;;;5091400;28;20067;-61
2023/01/10 02:47:23;;;;;;;7.75;5.97;;;282.00;2278.40;;;;;;5091427;28;20093;-60
2023/01/10 02:49:50;;;;;;;7.95;6.13;;;281.90;2278.40;;;;;;5091299;28;20028;-60
2023/01/10 02:52:23;;;;;;;12.10;9.13;;;282.00;2278.40;;;;;;5091328;28;20030;-60
2023/01/10 02:54:54;;;;;;;10.40;7.10;;;281.90;2278.40;;;;;;5091328;28;20465;-61
2023/01/10 02:57:35;;;;;;;15.35;6.95;;;281.90;2278.40;;;;;;5091207;28;20080;-58
2023/01/10 03:00:09;;;;;;;8.88;6.35;;;281.80;2278.40;;;;;;5091144;28;20062;-58
2023/01/10 03:02:56;;;;;;;9.02;4.45;;;281.70;2278.40;;;;;;5091027;28;20056;-59
2023/01/10 03:06:06;;;;;;;7.13;4.57;;;281.60;2278.40;;;;;;5091252;28;20032;-61
2023/01/10 03:08:38;;;;;;;5.82;3.97;;;256.90;2252.80;;;;;;5091030;28;20024;-62
2023/01/10 03:11:06;;;;;;;5.50;3.47;;;256.80;2252.80;;;;;;5090896;28;20020;-58
2023/01/10 03:13:32;;;;;;;4.90;3.58;;;256.70;2252.80;;;;;;5091151;28;20020;-59
2023/01/10 03:16:01;;;;;;;5.57;3.65;;;256.60;2252.80;;;;;;5090739;28;20359;-59
2023/01/10 03:18:33;;;;;;;6.32;4.60;;;256.60;2252.80;;;;;;5090736;28;20032;-61
2023/01/10 03:21:02;;;;;;;5.28;4.10;;;256.40;2252.80;;;;;;5090854;28;20051;-58
2023/01/10 03:23:28;;;;;;;4.50;3.35;;;256.30;2252.80;;;;;;5090141;28;20433;-58
2023/01/10 03:25:56;;;;;;;7.25;4.43;;;256.20;2252.80;;;;;;5089548;28;20020;-58
2023/01/10 03:28:34;;;;;;;18.95;16.88;;;256.00;2252.80;;;;;;5090883;28;20063;-59
2023/01/10 03:31:05;;;;;;;4.95;3.65;;;231.30;2252.80;;;;;;5090544;28;20470;-59
2023/01/10 03:33:32;;;;;;;4.80;3.08;;;231.10;2252.80;;;;;;5090574;28;20028;-58
2023/01/10 03:36:10;;;;;;;4.45;3.15;;;231.10;2252.80;;;;;;5090192;28;20078;-58
2023/01/10 03:39:13;;;;;;;6.45;3.63;;;231.00;2252.80;;;;;;5090286;28;20470;-60
2023/01/10 03:42:01;;;;;;;5.18;3.00;;;231.10;2252.80;;;;;;5090367;28;20074;-59
2023/01/10 03:44:47;;;;;;;4.05;2.75;;;230.90;2252.80;;;;;;5090250;28;20207;-60
2023/01/10 03:47:34;;;;;;;5.35;2.90;;;230.90;2252.80;;;;;;5090564;28;20506;-59
2023/01/10 03:50:07;;;;;;;4.15;2.72;;;230.90;2252.80;;;;;;5090388;28;20028;-61
2023/01/10 03:52:36;;;;;;;3.45;2.28;;;230.80;2252.80;;;;;;5090615;28;20493;-61
2023/01/10 03:55:04;;;;;;;7.47;4.03;;;230.80;2252.80;;;;;;5090437;28;20482;-58
2023/01/10 03:57:30;;;;;;;5.15;2.75;;;230.80;2252.80;;;;;;5090227;28;20035;-58
2023/01/10 03:59:57;;;;;;;6.70;6.10;;;230.80;2252.80;;;;;;5089923;28;20017;-58
2023/01/10 04:02:29;;;;;;;3.75;2.22;;;230.60;2252.80;;;;;;5090078;28;20029;-59
2023/01/10 04:04:55;;;;;;;3.72;1.80;;;230.60;2252.80;;;;;;5090219;28;20378;-59
2023/01/10 04:07:21;;;;;;;3.65;1.80;;;230.50;2252.80;;;;;;5090292;28;20035;-58
2023/01/10 04:09:47;;;;;;;5.57;1.80;;;230.40;2252.80;;;;;;5089879;28;20047;-59
2023/01/10 04:12:12;;;;;;;3.72;1.38;;;205.60;2252.80;;;;;;5090218;28;20020;-59
2023/01/10 04:14:38;;;;;;;3.78;1.67;;;205.70;2252.80;;;;;;5090226;28;20772;-59
2023/01/10 04:17:04;;;;;;;2.53;1.40;;;205.70;2252.80;;;;;;5090000;28;20045;-59
2023/01/10 04:19:30;;;;;;;3.22;1.60;;;205.70;2252.80;;;;;;5090265;28;20016;-61
2023/01/10 04:21:56;;;;;;;2.90;1.45;;;205.70;2252.80;;;;;;5089976;28;20031;-62
2023/01/10 04:24:22;;;;;;;2.33;1.33;;;205.70;2252.80;;;;;;5090047;28;20536;-59
2023/01/10 04:26:48;;;;;;;2.08;1.23;;;205.70;2252.80;;;;;;5089893;28;20020;-58
2023/01/10 04:29:14;;;;;;;2.83;1.25;;;205.70;2252.80;;;;;;5090039;28;20419;-58
2023/01/10 04:31:40;;;;;;;1.98;1.17;;;205.70;2252.80;;;;;;5090105;28;20052;-61
2023/01/10 04:34:07;;;;;;;2.83;1.35;;;205.60;2252.80;;;;;;5089840;28;20035;-58
2023/01/10 04:36:35;;;;;;;2.83;1.50;;;205.60;2252.80;;;;;;5091958;28;20430;-58
2023/01/10 04:39:01;;;;;;;3.55;1.55;;;205.50;2252.80;;;;;;5093833;28;20385;-60
2023/01/10 04:41:27;;;;;;;2.53;1.63;;;205.60;2252.80;;;;;;5093576;28;20040;-61
2023/01/10 04:43:52;;;;;;;1.88;1.05;;;205.50;2252.80;;;;;;5093752;28;20032;-61
2023/01/10 04:46:18;;;;;;;5.88;3.35;;;205.30;2252.80;;;;;;5093693;28;20125;-60
2023/01/10 04:48:44;;;;;;;3.35;1.85;;;205.50;2252.80;;;;;;5093457;28;20137;-61
2023/01/10 04:51:09;;;;;;;1.95;1.20;;;205.50;2252.80;;;;;;5093773;28;20031;-61
2023/01/10 04:53:35;;;;;;;1.60;1.10;;;205.30;2252.80;;;;;;5093545;28;20024;-59
2023/01/10 04:56:05;;;;;;;6.97;3.65;;;205.30;2252.80;;;;;;5093395;28;20023;-61
2023/01/10 04:58:36;;;;;;;7.22;2.00;;;205.40;2252.80;;;;;;5093497;28;20505;-61
2023/01/10 05:01:10;;;;;;;7.22;4.10;;;205.40;2252.80;;;;;;5093385;28;20497;-60
2023/01/10 05:03:36;;;;;;;6.07;3.95;;;205.30;2252.80;;;;;;5093321;28;20036;-61
2023/01/10 05:06:02;;;;;;;6.22;3.30;;;205.20;2252.80;;;;;;5093466;28;20020;-61
2023/01/10 05:08:28;;;;;;;7.43;3.97;;;205.40;2252.80;;;;;;5093066;28;20126;-60
2023/01/10 05:10:54;;;;;;;9.55;6.07;;;205.30;2252.80;;;;;;5093167;28;20032;-60
2023/01/10 05:13:20;;;;;;;3.95;2.30;;;205.30;2252.80;;;;;;5093157;28;20020;-60
2023/01/10 05:15:46;;;;;;;4.13;2.42;;;205.40;2252.80;;;;;;5093223;28;20035;-61
2023/01/10 05:18:11;;;;;;;5.28;3.38;;;205.40;2252.80;;;;;;5093023;28;20024;-59
2023/01/10 05:20:37;;;;;;;4.63;2.60;;;205.40;2252.80;;;;;;5093027;28;20028;-60
2023/01/10 05:23:03;;;;;;;4.93;2.40;;;205.40;2252.80;;;;;;5093184;28;20137;-60
2023/01/10 05:25:28;;;;;;;10.52;1.77;;;205.40;2252.80;;;;;;5092707;28;20115;-60
2023/01/10 05:27:54;;;;;;;4.00;1.83;;;205.50;2252.80;;;;;;5092796;28;20073;-60
2023/01/10 05:30:20;;;;;;;3.05;1.45;;;205.50;2252.80;;;;;;5092905;28;20477;-61
2023/01/10 05:32:46;;;;;;;2.30;1.40;;;205.30;2252.80;;;;;;5092668;28;20103;-59
2023/01/10 05:35:12;;;;;;;1.83;1.10;;;205.20;2252.80;;;;;;5093079;28;20422;-60
2023/01/10 05:37:37;;;;;;;1.30;0.80;;;205.30;2252.80;;;;;;5092818;28;20154;-60
2023/01/10 05:40:03;;;;;;;1.75;1.08;;;205.20;2252.80;;;;;;5094021;28;20035;-64
2023/01/10 05:42:29;;;;;;;1.75;1.02;;;205.20;2252.80;;;;;;5095912;28;20138;-61
2023/01/10 05:44:55;;;;;;;2.92;0.90;;;205.20;2252.80;;;;;;5096326;28;20058;-62
2023/01/10 05:47:20;;;;;;;2.83;1.30;;;205.20;2252.80;;;;;;5096172;28;20048;-59
2023/01/10 05:49:46;;;;;;;4.75;1.48;;;205.30;2252.80;;;;;;5096909;28;20355;-59
2023/01/10 05:52:12;;;;;;;2.03;1.10;;;205.30;2252.80;;;;;;5096189;28;20039;-59
2023/01/10 05:54:37;;;;;;;4.03;2.25;;;205.30;2252.80;;;;;;5092164;28;20052;-59
2023/01/10 05:57:03;;;;;;;1.77;1.00;;;205.20;2252.80;;;;;;5092488;28;20023;-60
2023/01/10 05:59:29;;;;;;;4.05;2.22;;;205.40;2252.80;;;;;;5092529;28;20028;-59
2023/01/10 06:01:55;;;;;;;3.42;2.13;;;205.20;2252.80;;;;;;5092388;28;20016;-59
2023/01/10 06:04:20;;;;;;;3.83;2.95;;;205.10;2252.80;;;;;;5092041;28;20055;-59
2023/01/10 06:06:46;;;;;;;1.88;1.30;;;205.20;2252.80;;;;;;5092467;28;20052;-60
2023/01/10 06:09:11;;;;;;;2.17;1.10;;;205.30;2252.80;;;;;;5091978;28;20035;-59
2023/01/10 06:11:37;;;;;;;1.90;1.20;;;205.20;2252.80;;;;;;5091786;28;20085;-59
2023/01/10 06:14:04;;;;;;;2.50;1.10;;;205.20;2252.80;;;;;;5092042;28;20024;-60
2023/01/10 06:16:29;;;;;;;2.58;1.30;;;205.30;2252.80;;;;;;5092216;28;20031;-59
2023/01/10 06:18:55;;;;;;;2.22;1.42;;;205.30;2252.80;;;;;;5091829;28;20017;-57
2023/01/10 06:21:21;;;;;;;4.63;2.60;;;205.50;2252.80;;;;;;5092139;28;20036;-58
2023/01/10 06:23:47;;;;;;;5.22;2.88;;;205.50;2252.80;;;;;;5091915;28;20040;-59
2023/01/10 06:26:13;;;;;;;10.25;7.93;;;205.50;2252.80;;;;;;5091930;28;20016;-58
2023/01/10 06:28:40;;;;;;;33.28;19.50;;;205.50;2252.80;;;;;;5091935;28;20032;-58
2023/01/10 06:31:07;;;;;;;23.48;17.60;;;205.60;2252.80;;;;;;5092190;28;20461;-58
2023/01/10 06:33:33;;;;;;;22.58;14.05;;;205.60;2252.80;;;;;;5091949;28;20035;-62
2023/01/10 06:35:59;;;;;;;14.18;9.20;;;205.50;2252.80;;;;;;5091995;28;20024;-58
2023/01/10 06:38:24;;;;;;;11.07;8.60;;;205.50;2252.80;;;;;;5091420;28;20359;-60
2023/01/10 06:40:50;;;;;;;12.75;6.88;;;205.60;2252.80;;;;;;5091818;28;20099;-59
2023/01/10 06:43:16;;;;;;;15.88;9.80;;;205.60;2252.80;;;;;;5091423;28;20367;-62
2023/01/10 06:45:41;;;;;;;9.65;6.55;;;205.50;2252.80;;;;;;5091466;28;20024;-58
2023/01/10 06:48:07;;;;;;;7.97;5.90;;;205.50;2252.80;;;;;;5091638;28;20119;-59
2023/01/10 06:50:33;;;;;;;8.90;5.82;;;205.50;2252.80;;;;;;5091966;28;20468;-59
2023/01/10 06:53:01;;;;;;;17.77;9.65;;;205.50;2252.80;;;;;;5091443;28;20024;-59
2023/01/10 06:55:27;;;;;;;8.70;5.82;;;205.50;2252.80;;;;;;5091560;28;20028;-58
2023/01/10 06:57:58;;;;;;;4.40;3.25;;;205.50;2252.80;;;;;;5091313;28;20024;-59
2023/01/10 07:00:25;;;;;;;7.10;4.75;;;205.30;2252.80;;;;;;5091355;28;20035;-59
2023/01/10 07:02:51;;;;;;;12.52;8.90;;;205.30;2252.80;;;;;;5091644;28;20036;-63
2023/01/10 07:05:16;;;;;;;149.52;121.40;;;205.30;2252.80;;;;;;5091885;28;20099;-67
2023/01/10 07:07:42;;;;;;;25.95;23.10;;;205.30;2252.80;;;;;;5091271;28;20035;-62
2023/01/10 07:10:08;;;;;;;5.25;3.30;;;205.40;2252.80;;;;;;5091043;28;20028;-68
2023/01/10 07:12:34;;;;;;;56.33;41.17;;;205.40;2252.80;;;;;;5091236;28;20378;-62
2023/01/10 07:15:00;;;;;;;12.20;9.52;;;205.40;2252.80;;;;;;5091312;28;20024;-75
2023/01/10 07:17:25;;;;;;;14.57;11.70;;;205.40;2252.80;;;;;;5090852;28;20016;-64
2023/01/10 07:19:51;;;;;;;7.65;4.80;;;205.30;2252.80;;;;;;5091271;28;20020;-73
2023/01/10 07:22:17;;;;;;;4.53;3.17;;;205.30;2252.80;;;;;;5090637;28;20020;-63
2023/01/10 07:24:42;;;;;;;9.52;8.52;;;205.50;2252.80;;;;;;5091051;28;20028;-73
2023/01/10 07:27:08;;;;;;;13.65;11.80;;;205.60;2252.80;;;;;;5090645;28;20449;-63
2023/01/10 07:29:34;;;;;;;10.10;9.25;;;205.40;2252.80;;;;;;5090598;28;20028;-64
2023/01/10 07:31:59;;;;;;;4.55;3.45;;;205.60;2252.80;;;;;;5091132;28;20111;-63
2023/01/10 07:34:25;;;;;;;3.85;2.53;;;205.60;2252.80;;;;;;5090786;28;20375;-63
2023/01/10 07:36:51;;;;;;;4.97;3.28;;;205.60;2252.80;;;;;;5090561;28;20045;-62
2023/01/10 07:39:16;;;;;;;9.15;5.32;;;205.50;2252.80;;;;;;5090217;28;20129;-63
2023/01/10 07:41:42;;;;;;;10.95;7.10;;;205.50;2252.80;;;;;;5090492;28;20035;-63
2023/01/10 07:44:08;;;;;;;6.80;4.47;;;205.60;2252.80;;;;;;5090386;28;20040;-62
2023/01/10 07:46:33;;;;;;;11.40;7.35;;;205.70;2252.80;;;;;;5090588;28;20050;-64
2023/01/10 07:48:59;;;;;;;5.90;4.38;;;230.60;2252.80;;;;;;5091499;28;20069;-64
2023/01/10 07:51:25;;;;;;;4.35;3.35;;;230.60;2252.80;;;;;;5091400;28;20025;-63
2023/01/10 07:53:50;;;;;;;5.32;3.67;;;230.60;2252.80;;;;;;5091762;28;20423;-64
2023/01/10 07:56:16;;;;;;;5.15;3.17;;;230.40;2252.80;;;;;;5091191;28;20028;-64
2023/01/10 07:58:42;;;;;;;5.65;3.33;;;230.40;2252.80;;;;;;5091614;28;20099;-63
2023/01/10 08:01:07;;;;;;;20.70;14.10;;;205.70;2252.80;;;;;;5090414;28;20535;-63
2023/01/10 08:03:34;;;;;;;11.23;7.80;;;205.70;2252.80;;;;;;5090342;28;20386;-63
2023/01/10 08:06:01;;;;;;;65.72;48.97;;;205.70;2252.80;;;;;;5090300;28;20070;-63
2023/01/10 08:08:27;;;;;;;15.95;9.35;;;205.70;2252.80;;;;;;5090079;28;20035;-63
2023/01/10 08:10:53;;;;;;;15.13;7.45;;;230.60;2252.80;;;;;;5092802;28;20020;-61
2023/01/10 08:13:19;;;;;;;15.15;9.23;;;230.50;2252.80;;;;;;5096966;28;20481;-63
2023/01/10 08:15:45;;;;;;;12.38;7.60;;;230.40;2252.80;;;;;;5097189;28;20032;-63
2023/01/10 08:18:11;;;;;;;13.82;7.43;;;205.70;2252.80;;;;;;5097308;28;20058;-64
2023/01/10 08:20:37;;;;;;;8.68;5.07;;;205.70;2252.80;;;;;;5096770;28;20056;-63
2023/01/10 08:23:03;;;;;;;8.32;4.53;;;205.60;2252.80;;;;;;5097358;28;20055;-64
2023/01/10 08:25:29;;;;;;;11.35;6.05;;;230.40;2252.80;;;;;;5097256;28;20363;-63
2023/01/10 08:27:55;;;;;;;49.92;20.05;;;205.70;2252.80;;;;;;5096792;28;20078;-63
2023/01/10 08:30:21;;;;;;;12.73;7.07;;;205.70;2252.80;;;;;;5097107;28;20020;-63
2023/01/10 08:32:46;;;;;;;62.50;24.50;;;205.70;2252.80;;;;;;5077686;28;20028;-63
2023/01/10 08:35:12;;;;;;;26.38;12.20;;;230.40;2252.80;;;;;;5097172;28;20027;-64
2023/01/10 08:37:38;;;;;;;11.93;7.10;;;230.40;2252.80;;;;;;5096556;28;20038;-63
2023/01/10 08:40:05;;;;;;;6.72;3.63;;;230.40;2252.80;;;;;;5096563;28;20509;-64
2023/01/10 08:42:30;;;;;;;13.60;7.07;;;230.40;2252.80;;;;;;5096657;28;20042;-63
2023/01/10 08:44:56;;;;;;;9.15;4.97;;;230.40;2252.80;;;;;;5096838;28;20111;-63
2023/01/10 08:47:21;;;;;;;11.88;9.30;;;205.70;2252.80;;;;;;5096550;28;20486;-63
2023/01/10 08:49:48;;;;;;;10.68;6.70;;;205.70;2252.80;;;;;;5096292;28;20466;-63
2023/01/10 08:52:14;;;;;;;31.67;21.83;;;230.60;2252.80;;;;;;5096310;28;20024;-63
2023/01/10 08:54:40;;;;;;;19.80;13.75;;;230.70;2252.80;;;;;;5096913;28;20019;-63
2023/01/10 08:57:06;;;;;;;14.90;8.50;;;230.80;2252.80;;;;;;5096387;28;20394;-63
2023/01/10 08:59:32;;;;;;;20.48;12.50;;;230.90;2252.80;;;;;;5096563;28;20016;-63
2023/01/10 09:01:58;;;;;;;14.77;10.32;;;230.90;2252.80;;;;;;5098504;28;20453;-65
2023/01/10 09:04:25;;;;;;;20.30;12.50;;;230.90;2252.80;;;;;;5097224;28;20036;-63
2023/01/10 09:06:51;;;;;;;16.05;8.75;;;230.80;2252.80;;;;;;5096755;28;20028;-61
2023/01/10 09:09:17;;;;;;;11.02;7.03;;;230.70;2252.80;;;;;;5095736;28;20081;-62
2023/01/10 09:11:42;;;;;;;8.88;4.90;;;230.60;2252.80;;;;;;5094621;28;20024;-63
2023/01/10 09:14:08;;;;;;;13.85;9.93;;;230.50;2252.80;;;;;;5093226;28;20104;-62
2023/01/10 09:16:34;;;;;;;14.60;8.35;;;230.50;2252.80;;;;;;5093374;28;20016;-63
2023/01/10 09:18:59;;;;;;;10.13;6.15;;;230.40;2252.80;;;;;;5093656;28;20431;-63
2023/01/10 09:21:27;;;;;;;9.57;5.57;;;230.50;2252.80;;;;;;5092973;28;20016;-63
2023/01/10 09:23:53;;;;;;;12.65;7.35;;;205.70;2252.80;;;;;;5090253;28;20040;-64
2023/01/10 09:26:18;;;;;;;12.20;7.88;;;230.50;2252.80;;;;;;5090129;28;20085;-63
2023/01/10 09:28:44;;;;;;;14.57;9.50;;;230.50;2252.80;;;;;;5090026;28;20041;-63
2023/01/10 09:31:10;;;;;;;9.90;6.55;;;230.40;2252.80;;;;;;5090288;28;20111;-63
2023/01/10 09:33:37;;;;;;;14.60;10.00;;;205.70;2252.80;;;;;;5089964;28;20166;-62
2023/01/10 09:36:03;;;;;;;12.93;7.85;;;230.40;2252.80;;;;;;5090433;28;20161;-63
2023/01/10 09:38:29;;;;;;;10.88;7.50;;;230.40;2252.80;;;;;;5089818;28;20521;-63
2023/01/10 09:41:16;;;;;;;8.80;5.05;;;205.60;2252.80;;;;;;5091143;28;20028;-64
2023/01/10 09:44:13;;;;;;;23.63;18.88;;;205.60;2252.80;;;;;;5087991;28;20039;-63
2023/01/10 09:46:58;;;;;;;16.08;9.18;;;230.40;2252.80;;;;;;5084352;28;20040;-63
2023/01/10 09:49:47;;;;;;;12.65;6.60;;;205.70;2252.80;;;;;;5090020;28;20077;-61
2023/01/10 09:52:22;;;;;;;17.08;10.95;;;205.70;2252.80;;;;;;5089592;28;20373;-62
2023/01/10 09:54:49;;;;;;;22.00;16.60;;;230.40;2252.80;;;;;;5089732;28;20485;-63
2023/01/10 09:57:20;;;;;;;32.13;16.20;;;230.50;2252.80;;;;;;5089492;28;20065;-63
2023/01/10 09:59:52;;;;;;;26.88;15.18;;;230.40;2252.80;;;;;;5089744;28;20047;-63
2023/01/10 10:02:41;;;;;;;18.40;8.73;;;230.60;2252.80;;;;;;5089560;28;20032;-63
2023/01/10 10:05:25;;;;;;;20.58;14.90;;;230.60;2252.80;;;;;;5089473;28;20039;-63
2023/01/10 10:07:57;;;;;;;18.38;9.52;;;230.60;2252.80;;;;;;5089551;28;20036;-63
2023/01/10 10:10:26;;;;;;;20.95;11.02;;;230.60;2252.80;;;;;;5089540;28;20073;-63
2023/01/10 10:12:52;;;;;;;19.55;10.90;;;230.70;2252.80;;;;;;5089631;28;20031;-64
2023/01/10 10:15:30;;;;;;;10.23;5.45;;;230.60;2252.80;;;;;;5086599;28;20530;-63
2023/01/10 10:18:23;;;;;;;10.43;7.15;;;230.50;2252.80;;;;;;5089158;28;20513;-63
2023/01/10 10:21:08;;;;;;;15.27;9.15;;;230.70;2252.80;;;;;;5089331;28;20359;-62
2023/01/10 10:23:52;;;;;;;20.40;14.13;;;230.70;2252.80;;;;;;5089228;28;20042;-63
2023/01/10 10:26:20;;;;;;;14.43;9.93;;;230.80;2252.80;;;;;;5089288;28;20415;-62
2023/01/10 10:29:30;;;;;;;7.13;4.53;;;230.80;2252.80;;;;;;5089576;28;20046;-63
2023/01/10 10:32:01;;;;;;;6.78;5.07;;;230.70;2252.80;;;;;;5026904;28;20026;-63
2023/01/10 10:34:40;;;;;;;6.30;4.28;;;230.70;2252.80;;;;;;5026518;28;20284;-63
2023/01/10 10:37:11;;;;;;;5.05;3.47;;;230.80;2252.80;;;;;;5027075;28;20037;-63
2023/01/10 10:39:40;;;;;;;15.05;11.10;;;230.80;2252.80;;;;;;5026284;28;20483;-63
2023/01/10 10:42:13;;;;;;;9.55;5.88;;;230.70;2252.80;;;;;;5026637;28;20034;-63
2023/01/10 10:44:51;;;;;;;7.07;4.28;;;230.70;2252.80;;;;;;5024399;28;20029;-62
2023/01/10 10:47:22;;;;;;;6.60;4.47;;;230.60;2252.80;;;;;;5025821;28;20103;-63
2023/01/10 10:50:01;;;;;;;17.25;12.05;;;230.60;2252.80;;;;;;5026157;28;20049;-63
2023/01/10 10:52:33;;;;;;;13.00;8.85;;;230.50;2252.80;;;;;;5026188;28;20427;-63
2023/01/10 10:54:59;;;;;;;13.35;9.65;;;230.40;2252.80;;;;;;5024128;28;20542;-64
2023/01/10 10:57:28;;;;;;;10.45;7.82;;;230.60;2252.80;;;;;;5025873;28;20108;-63
2023/01/10 10:59:56;;;;;;;8.27;6.45;;;230.60;2252.80;;;;;;5025623;28;20017;-64
2023/01/10 11:02:37;;;;;;;7.95;3.42;;;230.50;2252.80;;;;;;5025730;28;20029;-62
2023/01/10 11:05:07;;;;;;;8.85;5.70;;;230.50;2252.80;;;;;;5028536;28;20058;-63
2023/01/10 11:07:35;;;;;;;7.25;4.07;;;230.50;2252.80;;;;;;5036236;28;20032;-63
2023/01/10 11:12:46;;;;;;;19.38;12.82;;;230.50;2252.80;;;;;;5091109;28;20032;-64
2023/01/10 11:15:32;;;;;;;;;;;230.60;2252.80;;;;;;5091103;28;20425;-63
2023/01/10 11:18:15;;;;;;;15.68;10.80;;;230.70;2252.80;;;;;;5090487;28;19962;-63
2023/01/10 11:20:56;;;;;;;13.48;9.38;;;230.80;2252.80;;;;;;5090601;28;20082;-62
2023/01/10 11:23:48;;;;;;;7.63;5.50;;;230.90;2252.80;;;;;;5088101;28;20691;-63
2023/01/10 11:26:22;;;;;;;7.68;4.90;;;231.00;2252.80;;;;;;5080796;28;20039;-64
2023/01/10 11:28:50;;;;;;;11.80;6.82;;;231.10;2252.80;;;;;;5088880;28;20032;-64
2023/01/10 11:31:26;;;;;;;10.45;7.30;;;231.10;2252.80;;;;;;5086521;28;20016;-63
2023/01/10 11:33:53;;;;;;;7.20;4.72;;;231.20;2252.80;;;;;;5090062;28;20035;-63
2023/01/10 11:36:19;;;;;;;8.75;5.78;;;231.10;2252.80;;;;;;5090636;28;20036;-63
2023/01/10 11:39:02;;;;;;;10.95;7.13;;;231.20;2252.80;;;;;;5090293;28;20043;-64
2023/01/10 11:41:33;;;;;;;7.65;5.30;;;231.20;2252.80;;;;;;5090119;28;20061;-63
2023/01/10 11:44:27;;;;;;;13.75;8.13;;;256.00;2252.80;;;;;;5090135;28;20039;-63
2023/01/10 11:47:08;;;;;;;17.27;8.77;;;256.00;2252.80;;;;;;5087844;28;20039;-63
2023/01/10 11:49:39;;;;;;;5.40;2.97;;;256.20;2252.80;;;;;;5089885;28;20114;-63
2023/01/10 11:52:25;;;;;;;5.22;3.65;;;231.30;2252.80;;;;;;5088749;28;20032;-63
2023/01/10 11:54:53;;;;;;;6.97;4.07;;;231.20;2252.80;;;;;;5090353;28;20052;-63
2023/01/10 11:57:23;;;;;;;7.22;4.90;;;231.20;2252.80;;;;;;5090127;28;20027;-63
2023/01/10 11:59:56;;;;;;;9.98;7.25;;;231.00;2252.80;;;;;;5090077;28;20016;-63
2023/01/10 12:02:32;;;;;;;15.05;7.90;;;231.10;2252.80;;;;;;5090204;28;20024;-62
2023/01/10 12:05:03;;;;;;;10.32;5.30;;;231.20;2252.80;;;;;;5089952;28;20063;-63
2023/01/10 12:07:29;;;;;;;9.27;3.47;;;231.20;2252.80;;;;;;5089867;28;20024;-63
2023/01/10 12:10:00;;;;;;;8.50;4.82;;;231.30;2252.80;;;;;;5089970;28;20028;-63
2023/01/10 12:12:32;;;;;;;9.00;5.00;;;231.20;2252.80;;;;;;5089968;28;20034;-63
2023/01/10 12:15:01;;;;;;;14.95;8.98;;;231.10;2252.80;;;;;;5089898;28;20477;-63
2023/01/10 12:17:29;;;;;;;8.70;5.35;;;231.30;2252.80;;;;;;5089878;28;20028;-63
2023/01/10 12:19:59;;;;;;;15.70;9.50;;;231.30;2252.80;;;;;;5089865;28;20424;-63
2023/01/10 12:22:32;;;;;;;17.00;9.38;;;256.10;2252.80;;;;;;5089778;28;20466;-63
2023/01/10 12:25:01;;;;;;;11.70;8.45;;;256.20;2252.80;;;;;;5089897;28;20027;-63
2023/01/10 12:27:28;;;;;;;13.02;7.78;;;256.20;2252.80;;;;;;5089838;28;20024;-63
2023/01/10 12:30:24;;;;;;;22.10;12.75;;;256.20;2252.80;;;;;;5090174;28;20028;-62
2023/01/10 12:32:56;;;;;;;26.77;18.20;;;231.20;2252.80;;;;;;5089978;28;20024;-62